createdAt,value
2016-10-25T00:00:27.231Z,9.86
2016-10-25T00:01:27.218Z,9.81
2016-10-25T00:02:27.154Z,9.86
2016-10-25T00:03:27.450Z,9.86
2016-10-25T00:04:27.125Z,9.88
2016-10-25T00:05:27.114Z,9.86
2016-10-25T00:06:27.099Z,9.86
2016-10-25T00:07:27.079Z,9.79
2016-10-25T00:08:27.415Z,9.75
2016-10-25T00:09:27.053Z,9.75
2016-10-25T00:10:27.041Z,9.76
2016-10-25T00:11:27.338Z,9.78
2016-10-25T00:12:27.018Z,9.78
2016-10-25T00:13:26.994Z,9.81
2016-10-25T00:14:27.610Z,9.76
2016-10-25T00:15:26.964Z,9.82
2016-10-25T00:16:26.959Z,9.81
2016-10-25T00:17:26.944Z,9.86
2016-10-25T00:18:26.927Z,9.76
2016-10-25T00:19:26.915Z,9.76
2016-10-25T00:20:27.206Z,9.82
2016-10-25T00:21:26.957Z,9.81
2016-10-25T00:22:26.862Z,9.85
2016-10-25T00:23:26.859Z,9.81
2016-10-25T00:24:26.845Z,9.78
2016-10-25T00:25:26.822Z,9.82
2016-10-25T00:26:26.839Z,9.82
2016-10-25T00:27:26.793Z,9.79
2016-10-25T00:28:26.777Z,9.82
2016-10-25T00:29:26.765Z,9.79
2016-10-25T00:30:26.749Z,9.78
2016-10-25T00:31:26.734Z,9.82
2016-10-25T00:32:26.772Z,9.67
2016-10-25T00:33:26.706Z,9.82
2016-10-25T00:34:26.694Z,9.83
2016-10-25T00:35:26.675Z,9.82
2016-10-25T00:36:26.716Z,9.7
2016-10-25T00:37:26.964Z,9.78
2016-10-25T00:38:26.640Z,9.82
2016-10-25T00:39:26.628Z,9.79
2016-10-25T00:40:26.626Z,9.78
2016-10-25T00:41:26.904Z,9.85
2016-10-25T00:42:26.570Z,9.82
2016-10-25T00:43:26.869Z,9.71
2016-10-25T00:44:26.547Z,9.76
2016-10-25T00:45:26.534Z,9.82
2016-10-25T00:46:26.517Z,9.73
2016-10-25T00:47:26.504Z,9.7
2016-10-25T00:48:26.486Z,9.73
2016-10-25T00:49:26.786Z,9.85
2016-10-25T00:50:26.770Z,9.76
2016-10-25T00:51:26.759Z,9.73
2016-10-25T00:52:26.436Z,9.82
2016-10-25T00:53:26.412Z,9.75
2016-10-25T00:54:26.713Z,9.81
2016-10-25T00:55:26.388Z,9.78
2016-10-25T00:56:26.369Z,9.71
2016-10-25T00:57:26.353Z,9.73
2016-10-25T00:58:26.649Z,9.68
2016-10-25T00:59:26.326Z,9.76
2016-10-25T01:00:26.312Z,9.76
2016-10-25T01:01:26.346Z,9.79
2016-10-25T01:02:26.287Z,9.73
2016-10-25T01:03:26.627Z,9.76
2016-10-25T01:04:26.250Z,9.73
2016-10-25T01:05:26.552Z,9.73
2016-10-25T01:06:26.221Z,9.75
2016-10-25T01:07:26.207Z,9.75
2016-10-25T01:08:26.510Z,9.71
2016-10-25T01:09:26.210Z,9.76
2016-10-25T01:10:26.166Z,9.79
2016-10-25T01:11:26.459Z,9.79
2016-10-25T01:12:26.135Z,9.71
2016-10-25T01:13:26.124Z,9.71
2016-10-25T01:14:26.104Z,9.68
2016-10-25T01:15:26.089Z,9.82
2016-10-25T01:16:26.076Z,9.7
2016-10-25T01:17:26.061Z,9.81
2016-10-25T01:18:26.050Z,9.76
2016-10-25T01:19:26.041Z,9.76
2016-10-25T01:20:26.018Z,9.82
2016-10-25T01:21:26.014Z,9.68
2016-10-25T01:22:25.992Z,9.82
2016-10-25T01:23:25.988Z,9.68
2016-10-25T01:24:25.974Z,9.7
2016-10-25T01:25:25.948Z,9.79
2016-10-25T01:26:25.925Z,9.73
2016-10-25T01:27:26.230Z,9.76
2016-10-25T01:28:26.219Z,9.71
2016-10-25T01:29:26.195Z,9.79
2016-10-25T01:30:25.870Z,9.81
2016-10-25T01:31:25.892Z,9.88
2016-10-25T01:32:25.849Z,9.81
2016-10-25T01:33:26.140Z,9.79
2016-10-25T01:34:26.162Z,9.78
2016-10-25T01:35:25.797Z,9.78
2016-10-25T01:36:25.783Z,9.85
2016-10-25T01:37:25.761Z,9.82
2016-10-25T01:38:25.758Z,9.86
2016-10-25T01:39:25.739Z,9.81
2016-10-25T01:40:26.037Z,9.79
2016-10-25T01:41:25.713Z,9.82
2016-10-25T01:42:25.701Z,9.82
2016-10-25T01:43:25.991Z,9.79
2016-10-25T01:44:25.668Z,9.81
2016-10-25T01:45:25.659Z,9.81
2016-10-25T01:46:25.640Z,9.75
2016-10-25T01:47:25.622Z,9.76
2016-10-25T01:48:25.619Z,9.82
2016-10-25T01:49:25.594Z,9.78
2016-10-25T01:50:25.786Z,9.71
2016-10-25T01:51:25.565Z,9.75
2016-10-25T01:52:25.551Z,9.78
2016-10-25T01:53:25.537Z,9.76
2016-10-25T01:54:25.836Z,9.82
2016-10-25T01:55:25.553Z,9.82
2016-10-25T01:56:25.490Z,9.78
2016-10-25T01:57:25.477Z,9.79
2016-10-25T01:58:25.460Z,9.81
2016-10-25T01:59:25.448Z,9.82
2016-10-25T02:00:25.751Z,9.7
2016-10-25T02:01:25.422Z,9.67
2016-10-25T02:02:25.721Z,9.81
2016-10-25T02:03:25.395Z,9.78
2016-10-25T02:04:25.688Z,9.75
2016-10-25T02:05:25.360Z,9.83
2016-10-25T02:06:25.350Z,9.78
2016-10-25T02:07:25.331Z,9.81
2016-10-25T02:08:25.355Z,9.82
2016-10-25T02:09:25.312Z,9.76
2016-10-25T02:10:25.606Z,9.83
2016-10-25T02:11:25.280Z,9.82
2016-10-25T02:12:25.566Z,9.86
2016-10-25T02:13:25.241Z,9.71
2016-10-25T02:14:25.542Z,9.7
2016-10-25T02:15:25.214Z,9.81
2016-10-25T02:16:25.197Z,9.82
2016-10-25T02:17:25.196Z,9.79
2016-10-25T02:18:25.487Z,9.79
2016-10-25T02:19:25.152Z,9.85
2016-10-25T02:20:25.157Z,9.81
2016-10-25T02:21:25.126Z,9.83
2016-10-25T02:22:25.117Z,9.79
2016-10-25T02:23:25.405Z,9.82
2016-10-25T02:24:25.081Z,9.78
2016-10-25T02:25:25.071Z,9.88
2016-10-25T02:26:25.051Z,9.83
2016-10-25T02:27:25.038Z,9.82
2016-10-25T02:28:25.035Z,9.85
2016-10-25T02:29:25.059Z,9.81
2016-10-25T02:30:24.991Z,9.88
2016-10-25T02:31:24.991Z,9.82
2016-10-25T02:32:24.967Z,9.85
2016-10-25T02:33:25.262Z,9.97
2016-10-25T02:34:25.256Z,9.82
2016-10-25T02:35:24.923Z,9.86
2016-10-25T02:36:24.958Z,9.86
2016-10-25T02:37:24.902Z,9.81
2016-10-25T02:38:24.880Z,9.82
2016-10-25T02:39:24.864Z,9.86
2016-10-25T02:40:24.880Z,9.78
2016-10-25T02:41:24.830Z,9.79
2016-10-25T02:42:24.821Z,9.85
2016-10-25T02:43:24.809Z,9.86
2016-10-25T02:44:25.138Z,9.81
2016-10-25T02:45:24.777Z,9.75
2016-10-25T02:46:24.765Z,9.79
2016-10-25T02:47:24.831Z,9.82
2016-10-25T02:48:24.737Z,9.79
2016-10-25T02:49:24.726Z,9.82
2016-10-25T02:50:24.719Z,9.78
2016-10-25T02:51:24.687Z,9.79
2016-10-25T02:52:24.986Z,9.85
2016-10-25T02:53:24.663Z,9.75
2016-10-25T02:54:24.647Z,9.81
2016-10-25T02:55:24.662Z,9.86
2016-10-25T02:56:24.621Z,9.85
2016-10-25T02:57:24.600Z,9.81
2016-10-25T02:58:24.593Z,9.75
2016-10-25T02:59:24.572Z,9.82
2016-10-25T03:00:24.591Z,9.85
2016-10-25T03:01:24.544Z,9.91
2016-10-25T03:02:24.531Z,9.76
2016-10-25T03:03:24.509Z,9.86
2016-10-25T03:04:24.500Z,9.78
2016-10-25T03:05:24.804Z,9.88
2016-10-25T03:06:24.470Z,9.88
2016-10-25T03:07:24.488Z,9.86
2016-10-25T03:08:24.465Z,9.93
2016-10-25T03:09:24.483Z,9.88
2016-10-25T03:10:24.731Z,9.89
2016-10-25T03:11:24.400Z,9.82
2016-10-25T03:12:24.386Z,9.88
2016-10-25T03:13:24.367Z,9.89
2016-10-25T03:14:24.357Z,9.89
2016-10-25T03:15:24.678Z,9.83
2016-10-25T03:16:24.640Z,9.94
2016-10-25T03:17:24.313Z,9.91
2016-10-25T03:18:24.293Z,9.88
2016-10-25T03:19:24.283Z,9.83
2016-10-25T03:20:24.580Z,9.88
2016-10-25T03:21:24.249Z,9.86
2016-10-25T03:22:24.242Z,9.86
2016-10-25T03:23:24.228Z,9.89
2016-10-25T03:24:24.208Z,9.86
2016-10-25T03:25:24.199Z,9.83
2016-10-25T03:26:24.184Z,9.76
2016-10-25T03:27:24.482Z,9.88
2016-10-25T03:28:24.171Z,9.81
2016-10-25T03:29:24.144Z,9.91
2016-10-25T03:30:24.124Z,9.85
2016-10-25T03:31:24.424Z,9.88
2016-10-25T03:32:24.097Z,9.76
2016-10-25T03:33:24.079Z,9.85
2016-10-25T03:34:24.380Z,9.82
2016-10-25T03:35:24.365Z,9.76
2016-10-25T03:36:24.036Z,9.73
2016-10-25T03:37:24.016Z,9.82
2016-10-25T03:38:24.322Z,9.76
2016-10-25T03:39:23.995Z,9.82
2016-10-25T03:40:23.979Z,9.75
2016-10-25T03:41:23.963Z,9.7
2016-10-25T03:42:23.947Z,9.81
2016-10-25T03:43:23.935Z,9.81
2016-10-25T03:44:23.921Z,9.81
2016-10-25T03:45:23.907Z,9.82
2016-10-25T03:46:23.888Z,9.83
2016-10-25T03:47:24.189Z,9.76
2016-10-25T03:48:24.171Z,9.81
2016-10-25T03:49:23.847Z,9.82
2016-10-25T03:50:24.031Z,9.82
2016-10-25T03:51:23.814Z,9.82
2016-10-25T03:52:24.118Z,9.82
2016-10-25T03:53:23.792Z,9.79
2016-10-25T03:54:23.772Z,9.85
2016-10-25T03:55:23.756Z,9.82
2016-10-25T03:56:23.749Z,9.82
2016-10-25T03:57:23.731Z,9.83
2016-10-25T03:58:23.712Z,9.75
2016-10-25T03:59:23.695Z,9.82
2016-10-25T04:00:23.690Z,9.83
2016-10-25T04:01:23.674Z,9.85
2016-10-25T04:02:23.968Z,9.7
2016-10-25T04:03:23.640Z,9.81
2016-10-25T04:04:23.631Z,9.81
2016-10-25T04:05:23.617Z,9.79
2016-10-25T04:06:23.594Z,9.79
2016-10-25T04:07:23.924Z,9.79
2016-10-25T04:08:23.579Z,9.71
2016-10-25T04:09:23.559Z,9.82
2016-10-25T04:10:23.543Z,9.71
2016-10-25T04:11:23.525Z,9.75
2016-10-25T04:12:23.514Z,9.76
2016-10-25T04:13:23.812Z,9.75
2016-10-25T04:14:23.485Z,9.68
2016-10-25T04:15:23.468Z,9.71
2016-10-25T04:16:23.504Z,9.68
2016-10-25T04:17:23.754Z,9.71
2016-10-25T04:18:23.422Z,9.73
2016-10-25T04:19:23.409Z,9.75
2016-10-25T04:20:23.395Z,9.75
2016-10-25T04:21:23.379Z,9.71
2016-10-25T04:22:23.369Z,9.75
2016-10-25T04:23:23.352Z,9.73
2016-10-25T04:24:23.334Z,9.75
2016-10-25T04:25:23.321Z,9.67
2016-10-25T04:26:23.303Z,9.7
2016-10-25T04:27:23.614Z,9.75
2016-10-25T04:28:23.280Z,9.78
2016-10-25T04:29:23.262Z,9.71
2016-10-25T04:30:23.565Z,9.76
2016-10-25T04:31:23.234Z,9.71
2016-10-25T04:32:23.217Z,9.63
2016-10-25T04:33:23.211Z,9.67
2016-10-25T04:34:23.192Z,9.71
2016-10-25T04:35:23.489Z,9.76
2016-10-25T04:36:23.165Z,9.6
2016-10-25T04:37:23.159Z,9.63
2016-10-25T04:38:23.449Z,9.68
2016-10-25T04:39:23.154Z,9.71
2016-10-25T04:40:23.100Z,9.68
2016-10-25T04:41:23.088Z,9.75
2016-10-25T04:42:23.072Z,9.73
2016-10-25T04:43:23.063Z,9.73
2016-10-25T04:44:23.050Z,9.7
2016-10-25T04:45:23.031Z,9.67
2016-10-25T04:46:23.018Z,9.67
2016-10-25T04:47:23.001Z,9.7
2016-10-25T04:48:22.985Z,9.63
2016-10-25T04:49:22.985Z,9.63
2016-10-25T04:50:22.960Z,9.66
2016-10-25T04:51:22.940Z,9.61
2016-10-25T04:52:23.248Z,9.63
2016-10-25T04:53:22.913Z,9.61
2016-10-25T04:54:23.233Z,9.57
2016-10-25T04:55:22.899Z,9.7
2016-10-25T04:56:23.190Z,9.66
2016-10-25T04:57:22.861Z,9.63
2016-10-25T04:58:22.874Z,9.64
2016-10-25T04:59:22.821Z,9.6
2016-10-25T05:00:22.807Z,9.58
2016-10-25T05:01:22.790Z,9.63
2016-10-25T05:02:22.781Z,9.61
2016-10-25T05:03:23.074Z,9.56
2016-10-25T05:04:22.805Z,9.64
2016-10-25T05:05:22.761Z,9.6
2016-10-25T05:06:22.730Z,9.63
2016-10-25T05:07:23.344Z,9.64
2016-10-25T05:08:22.688Z,9.63
2016-10-25T05:09:22.674Z,9.6
2016-10-25T05:10:22.668Z,9.61
2016-10-25T05:11:22.659Z,9.66
2016-10-25T05:12:22.636Z,9.6
2016-10-25T05:13:22.926Z,9.63
2016-10-25T05:14:22.916Z,9.58
2016-10-25T05:15:22.586Z,9.68
2016-10-25T05:16:22.577Z,9.64
2016-10-25T05:17:22.565Z,9.61
2016-10-25T05:18:22.549Z,9.63
2016-10-25T05:19:22.526Z,9.6
2016-10-25T05:20:22.517Z,9.58
2016-10-25T05:21:22.497Z,9.58
2016-10-25T05:22:22.481Z,9.57
2016-10-25T05:23:22.464Z,9.58
2016-10-25T05:24:22.462Z,9.63
2016-10-25T05:25:22.444Z,9.6
2016-10-25T05:26:22.431Z,9.61
2016-10-25T05:27:22.721Z,9.6
2016-10-25T05:28:22.395Z,9.67
2016-10-25T05:29:22.377Z,9.58
2016-10-25T05:30:22.361Z,9.63
2016-10-25T05:31:22.346Z,9.61
2016-10-25T05:32:22.334Z,9.67
2016-10-25T05:33:22.314Z,9.64
2016-10-25T05:34:22.310Z,9.67
2016-10-25T05:35:22.289Z,9.7
2016-10-25T05:36:22.269Z,9.63
2016-10-25T05:37:22.300Z,9.61
2016-10-25T05:38:22.245Z,9.66
2016-10-25T05:39:22.234Z,9.63
2016-10-25T05:40:22.218Z,9.58
2016-10-25T05:41:22.207Z,9.57
2016-10-25T05:42:22.503Z,9.56
2016-10-25T05:43:22.167Z,9.6
2016-10-25T05:44:22.156Z,9.58
2016-10-25T05:45:22.145Z,9.66
2016-10-25T05:46:22.127Z,9.6
2016-10-25T05:47:22.742Z,9.56
2016-10-25T05:48:22.845Z,9.6
2016-10-25T05:49:22.082Z,9.66
2016-10-25T05:50:22.381Z,9.58
2016-10-25T05:51:22.058Z,9.66
2016-10-25T05:52:22.036Z,9.63
2016-10-25T05:53:22.343Z,9.58
2016-10-25T05:54:22.001Z,9.61
2016-10-25T05:55:21.993Z,9.53
2016-10-25T05:56:21.979Z,9.57
2016-10-25T05:57:22.111Z,9.66
2016-10-25T05:58:21.945Z,9.6
2016-10-25T05:59:21.926Z,9.61
2016-10-25T06:00:21.955Z,9.6
2016-10-25T06:01:22.214Z,9.57
2016-10-25T06:02:21.887Z,9.53
2016-10-25T06:03:21.872Z,9.66
2016-10-25T06:04:22.170Z,9.64
2016-10-25T06:05:21.841Z,9.7
2016-10-25T06:06:21.829Z,9.57
2016-10-25T06:07:21.814Z,9.63
2016-10-25T06:08:21.796Z,9.6
2016-10-25T06:09:21.782Z,9.57
2016-10-25T06:10:21.795Z,9.68
2016-10-25T06:11:21.750Z,9.6
2016-10-25T06:12:21.738Z,9.66
2016-10-25T06:13:21.723Z,9.58
2016-10-25T06:14:21.707Z,9.6
2016-10-25T06:15:21.740Z,9.6
2016-10-25T06:16:21.997Z,9.64
2016-10-25T06:17:21.664Z,9.64
2016-10-25T06:18:21.649Z,9.6
2016-10-25T06:19:21.634Z,9.6
2016-10-25T06:20:21.621Z,9.58
2016-10-25T06:21:21.608Z,9.57
2016-10-25T06:22:22.320Z,9.58
2016-10-25T06:23:21.569Z,9.64
2016-10-25T06:24:21.565Z,9.6
2016-10-25T06:25:21.541Z,9.58
2016-10-25T06:26:21.528Z,9.58
2016-10-25T06:27:21.515Z,9.63
2016-10-25T06:28:21.506Z,9.63
2016-10-25T06:29:21.519Z,9.67
2016-10-25T06:30:21.473Z,9.66
2016-10-25T06:31:21.455Z,9.64
2016-10-25T06:32:21.438Z,9.66
2016-10-25T06:33:21.422Z,9.66
2016-10-25T06:34:21.410Z,9.73
2016-10-25T06:35:21.707Z,9.71
2016-10-25T06:36:21.691Z,9.71
2016-10-25T06:37:21.362Z,9.64
2016-10-25T06:38:21.348Z,9.71
2016-10-25T06:39:21.336Z,9.71
2016-10-25T06:40:21.321Z,9.73
2016-10-25T06:41:21.626Z,9.67
2016-10-25T06:42:21.605Z,9.71
2016-10-25T06:43:21.273Z,9.7
2016-10-25T06:44:21.634Z,9.7
2016-10-25T06:45:21.246Z,9.71
2016-10-25T06:46:21.541Z,9.71
2016-10-25T06:47:21.221Z,9.71
2016-10-25T06:48:21.523Z,9.71
2016-10-25T06:49:21.500Z,9.73
2016-10-25T06:50:21.173Z,9.7
2016-10-25T06:51:21.158Z,9.76
2016-10-25T06:52:21.456Z,9.71
2016-10-25T06:53:21.124Z,9.75
2016-10-25T06:54:21.116Z,9.73
2016-10-25T06:55:21.095Z,9.73
2016-10-25T06:56:21.083Z,9.68
2016-10-25T06:57:21.066Z,9.73
2016-10-25T06:58:21.053Z,9.73
2016-10-25T06:59:21.036Z,9.71
2016-10-25T07:00:21.020Z,9.78
2016-10-25T07:01:21.633Z,9.7
2016-10-25T07:02:21.308Z,9.68
2016-10-25T07:03:20.977Z,9.73
2016-10-25T07:04:20.959Z,9.75
2016-10-25T07:05:20.953Z,9.73
2016-10-25T07:06:20.940Z,9.68
2016-10-25T07:07:21.229Z,9.71
2016-10-25T07:08:20.900Z,9.71
2016-10-25T07:09:20.890Z,9.68
2016-10-25T07:10:21.185Z,9.76
2016-10-25T07:11:20.856Z,9.7
2016-10-25T07:12:20.839Z,9.7
2016-10-25T07:13:20.829Z,9.71
2016-10-25T07:14:20.821Z,9.71
2016-10-25T07:15:20.800Z,9.71
2016-10-25T07:16:20.783Z,9.73
2016-10-25T07:17:20.779Z,9.73
2016-10-25T07:18:21.072Z,9.73
2016-10-25T07:19:20.745Z,9.68
2016-10-25T07:20:20.728Z,9.71
2016-10-25T07:21:20.709Z,9.73
2016-10-25T07:22:20.705Z,9.79
2016-10-25T07:23:20.680Z,9.7
2016-10-25T07:24:20.664Z,9.7
2016-10-25T07:25:20.656Z,9.71
2016-10-25T07:26:20.950Z,9.76
2016-10-25T07:27:20.617Z,9.73
2016-10-25T07:28:20.610Z,9.75
2016-10-25T07:29:20.591Z,9.73
2016-10-25T07:30:20.575Z,9.71
2016-10-25T07:31:20.562Z,9.7
2016-10-25T07:32:20.548Z,9.7
2016-10-25T07:33:20.542Z,9.75
2016-10-25T07:34:20.550Z,9.73
2016-10-25T07:35:20.505Z,9.61
2016-10-25T07:36:20.486Z,9.71
2016-10-25T07:37:20.473Z,9.68
2016-10-25T07:38:20.779Z,9.68
2016-10-25T07:39:20.448Z,9.57
2016-10-25T07:40:20.492Z,9.63
2016-10-25T07:41:20.744Z,9.58
2016-10-25T07:42:20.401Z,9.6
2016-10-25T07:43:20.387Z,9.6
2016-10-25T07:44:20.369Z,9.56
2016-10-25T07:45:20.349Z,9.63
2016-10-25T07:46:20.648Z,9.64
2016-10-25T07:47:20.321Z,9.67
2016-10-25T07:48:20.631Z,9.67
2016-10-25T07:49:20.917Z,9.64
2016-10-25T07:50:20.275Z,9.68
2016-10-25T07:51:20.775Z,9.75
2016-10-25T07:52:20.562Z,9.57
2016-10-25T07:53:20.233Z,9.71
2016-10-25T07:54:20.224Z,9.73
2016-10-25T07:55:20.203Z,9.68
2016-10-25T07:56:20.499Z,9.61
2016-10-25T07:57:20.171Z,9.66
2016-10-25T07:58:20.788Z,9.71
2016-10-25T07:59:20.452Z,9.76
2016-10-25T08:00:20.135Z,9.71
2016-10-25T08:01:20.115Z,9.73
2016-10-25T08:02:20.132Z,9.66
2016-10-25T08:03:20.090Z,9.67
2016-10-25T08:04:20.096Z,9.64
2016-10-25T08:05:20.367Z,9.64
2016-10-25T08:06:20.360Z,9.63
2016-10-25T08:07:20.027Z,9.63
2016-10-25T08:08:20.010Z,9.6
2016-10-25T08:09:19.994Z,9.58
2016-10-25T08:10:19.995Z,9.57
2016-10-25T08:11:19.965Z,9.6
2016-10-25T08:12:19.953Z,9.52
2016-10-25T08:13:19.935Z,9.57
2016-10-25T08:14:19.923Z,9.56
2016-10-25T08:15:19.906Z,9.53
2016-10-25T08:16:19.897Z,9.58
2016-10-25T08:17:20.188Z,9.61
2016-10-25T08:18:20.173Z,9.56
2016-10-25T08:19:19.843Z,9.56
2016-10-25T08:20:20.028Z,9.5
2016-10-25T08:21:19.852Z,9.4
2016-10-25T08:22:19.804Z,9.43
2016-10-25T08:23:19.788Z,9.45
2016-10-25T08:24:19.771Z,9.46
2016-10-25T08:25:19.756Z,9.39
2016-10-25T08:26:19.753Z,9.32
2016-10-25T08:27:19.726Z,9.4
2016-10-25T08:28:19.749Z,9.46
2016-10-25T08:29:20.007Z,9.46
2016-10-25T08:30:20.011Z,9.45
2016-10-25T08:31:19.664Z,9.39
2016-10-25T08:32:19.652Z,9.46
2016-10-25T08:33:19.630Z,9.38
2016-10-25T08:34:19.620Z,9.49
2016-10-25T08:35:19.607Z,9.39
2016-10-25T08:36:19.589Z,9.43
2016-10-25T08:37:19.579Z,9.43
2016-10-25T08:38:19.562Z,9.5
2016-10-25T08:39:19.553Z,9.4
2016-10-25T08:40:19.842Z,9.39
2016-10-25T08:41:19.516Z,9.43
2016-10-25T08:42:19.809Z,9.45
2016-10-25T08:43:19.516Z,9.39
2016-10-25T08:44:19.472Z,9.43
2016-10-25T08:45:19.463Z,9.43
2016-10-25T08:46:19.440Z,9.43
2016-10-25T08:47:19.423Z,9.5
2016-10-25T08:48:19.419Z,9.42
2016-10-25T08:49:19.756Z,9.42
2016-10-25T08:50:19.698Z,9.43
2016-10-25T08:51:19.365Z,9.46
2016-10-25T08:52:19.346Z,9.48
2016-10-25T08:53:19.336Z,9.53
2016-10-25T08:54:19.317Z,9.53
2016-10-25T08:55:19.304Z,9.58
2016-10-25T08:56:19.290Z,9.46
2016-10-25T08:57:19.275Z,9.57
2016-10-25T08:58:19.909Z,9.58
2016-10-25T08:59:19.252Z,9.48
2016-10-25T09:00:19.233Z,9.46
2016-10-25T09:01:19.215Z,9.58
2016-10-25T09:02:19.197Z,9.56
2016-10-25T09:03:19.181Z,9.58
2016-10-25T09:04:19.171Z,9.52
2016-10-25T09:05:19.153Z,9.52
2016-10-25T09:06:19.163Z,9.56
2016-10-25T09:07:19.456Z,9.61
2016-10-25T09:08:19.111Z,9.64
2016-10-25T09:09:19.418Z,9.64
2016-10-25T09:10:19.082Z,9.68
2016-10-25T09:11:19.066Z,9.57
2016-10-25T09:12:19.057Z,9.67
2016-10-25T09:13:19.663Z,9.56
2016-10-25T09:14:19.331Z,9.64
2016-10-25T09:15:19.007Z,9.7
2016-10-25T09:16:18.993Z,9.75
2016-10-25T09:17:19.287Z,9.71
2016-10-25T09:18:18.964Z,9.71
2016-10-25T09:19:18.950Z,9.68
2016-10-25T09:20:18.931Z,9.71
2016-10-25T09:21:19.232Z,9.7
2016-10-25T09:22:18.903Z,9.71
2016-10-25T09:23:18.887Z,9.78
2016-10-25T09:24:18.874Z,9.71
2016-10-25T09:25:19.181Z,9.61
2016-10-25T09:26:18.845Z,9.73
2016-10-25T09:27:18.833Z,9.79
2016-10-25T09:28:18.846Z,9.68
2016-10-25T09:29:18.801Z,9.76
2016-10-25T09:30:18.787Z,9.81
2016-10-25T09:31:18.771Z,9.93
2016-10-25T09:32:18.761Z,9.89
2016-10-25T09:33:18.739Z,9.94
2016-10-25T09:34:18.729Z,9.96
2016-10-25T09:35:18.710Z,9.94
2016-10-25T09:36:18.701Z,9.88
2016-10-25T09:37:18.683Z,9.97
2016-10-25T09:38:18.666Z,10
2016-10-25T09:39:18.654Z,9.96
2016-10-25T09:40:18.642Z,9.94
2016-10-25T09:41:18.635Z,9.96
2016-10-25T09:42:18.610Z,9.96
2016-10-25T09:43:18.913Z,10.04
2016-10-25T09:44:18.594Z,10
2016-10-25T09:45:18.574Z,10.06
2016-10-25T09:46:18.557Z,10.04
2016-10-25T09:47:18.544Z,10.01
2016-10-25T09:48:18.844Z,10.03
2016-10-25T09:49:18.512Z,10
2016-10-25T09:50:18.500Z,10.21
2016-10-25T09:51:19.000Z,10.15
2016-10-25T09:52:18.782Z,10.21
2016-10-25T09:53:18.487Z,10.18
2016-10-25T09:54:18.444Z,10.15
2016-10-25T09:55:18.428Z,10.19
2016-10-25T09:56:18.729Z,10.19
2016-10-25T09:57:18.404Z,10.22
2016-10-25T09:58:18.388Z,10.19
2016-10-25T09:59:18.373Z,10.19
2016-10-25T10:00:18.359Z,10.21
2016-10-25T10:01:18.343Z,10.19
2016-10-25T10:02:18.331Z,10.24
2016-10-25T10:03:18.314Z,10.22
2016-10-25T10:04:18.303Z,10.22
2016-10-25T10:05:18.290Z,10.21
2016-10-25T10:06:18.275Z,10.17
2016-10-25T10:07:18.576Z,10.32
2016-10-25T10:08:18.246Z,10.24
2016-10-25T10:09:18.235Z,10.19
2016-10-25T10:10:18.224Z,10.17
2016-10-25T10:11:18.212Z,10.18
2016-10-25T10:12:18.196Z,10.18
2016-10-25T10:13:18.496Z,10.22
2016-10-25T10:14:18.164Z,10.26
2016-10-25T10:15:18.155Z,10.19
2016-10-25T10:16:18.146Z,10.28
2016-10-25T10:17:18.124Z,10.22
2016-10-25T10:18:18.143Z,10.19
2016-10-25T10:19:18.408Z,10.01
2016-10-25T10:20:18.118Z,10
2016-10-25T10:21:18.069Z,10.06
2016-10-25T10:22:18.057Z,10.03
2016-10-25T10:23:18.040Z,10
2016-10-25T10:24:18.027Z,10.03
2016-10-25T10:25:18.327Z,10.04
2016-10-25T10:26:17.999Z,10.04
2016-10-25T10:27:17.998Z,10.04
2016-10-25T10:28:17.972Z,10.06
2016-10-25T10:29:17.959Z,10.04
2016-10-25T10:30:17.942Z,10.03
2016-10-25T10:31:17.933Z,10.01
2016-10-25T10:32:17.913Z,10
2016-10-25T10:33:18.574Z,10.04
2016-10-25T10:34:18.236Z,10.06
2016-10-25T10:35:17.889Z,10
2016-10-25T10:36:17.861Z,10.14
2016-10-25T10:37:17.846Z,10.18
2016-10-25T10:38:17.833Z,10.12
2016-10-25T10:39:17.820Z,10.14
2016-10-25T10:40:17.810Z,10.14
2016-10-25T10:41:17.790Z,10.21
2016-10-25T10:42:17.790Z,10.17
2016-10-25T10:43:17.770Z,10.21
2016-10-25T10:44:17.758Z,10.19
2016-10-25T10:45:17.780Z,10.21
2016-10-25T10:46:17.743Z,10.22
2016-10-25T10:47:17.707Z,10.21
2016-10-25T10:48:17.716Z,10.18
2016-10-25T10:49:17.694Z,10.15
2016-10-25T10:50:17.663Z,10.19
2016-10-25T10:51:17.648Z,10.12
2016-10-25T10:52:17.641Z,10
2016-10-25T10:53:17.627Z,10.06
2016-10-25T10:54:17.607Z,10.04
2016-10-25T10:55:17.593Z,10.03
2016-10-25T10:56:17.580Z,10.21
2016-10-25T10:57:17.571Z,10.19
2016-10-25T10:58:17.564Z,10.19
2016-10-25T10:59:17.535Z,10.24
2016-10-25T11:00:17.528Z,10.21
2016-10-25T11:01:17.821Z,10.18
2016-10-25T11:02:17.496Z,10.24
2016-10-25T11:03:17.479Z,10.18
2016-10-25T11:04:17.473Z,10.25
2016-10-25T11:05:17.776Z,10.24
2016-10-25T11:06:17.444Z,10.3
2016-10-25T11:07:17.427Z,10.21
2016-10-25T11:08:17.416Z,10.25
2016-10-25T11:09:17.708Z,10.3
2016-10-25T11:10:17.383Z,10.19
2016-10-25T11:11:17.828Z,10.24
2016-10-25T11:12:17.685Z,10.22
2016-10-25T11:13:17.354Z,10.32
2016-10-25T11:14:17.329Z,10.26
2016-10-25T11:15:17.631Z,10.26
2016-10-25T11:16:17.331Z,10.36
2016-10-25T11:17:17.605Z,10.32
2016-10-25T11:18:17.277Z,10.37
2016-10-25T11:19:17.265Z,10.36
2016-10-25T11:20:17.268Z,10.33
2016-10-25T11:21:17.236Z,10.33
2016-10-25T11:22:17.224Z,10.25
2016-10-25T11:23:17.207Z,10.28
2016-10-25T11:24:17.195Z,10.28
2016-10-25T11:25:17.183Z,10.3
2016-10-25T11:26:17.495Z,10.36
2016-10-25T11:27:17.161Z,10.33
2016-10-25T11:28:17.451Z,10.37
2016-10-25T11:29:17.125Z,10.3
2016-10-25T11:30:17.111Z,10.34
2016-10-25T11:31:17.100Z,10.36
2016-10-25T11:32:17.116Z,10.3
2016-10-25T11:33:17.067Z,10.32
2016-10-25T11:34:17.063Z,10.33
2016-10-25T11:35:17.050Z,10.37
2016-10-25T11:36:17.054Z,10.3
2016-10-25T11:37:17.016Z,10.36
2016-10-25T11:38:17.308Z,10.3
2016-10-25T11:39:16.983Z,10.37
2016-10-25T11:40:16.976Z,10.42
2016-10-25T11:41:16.963Z,10.52
2016-10-25T11:42:16.941Z,10.46
2016-10-25T11:43:16.928Z,10.47
2016-10-25T11:44:16.916Z,10.47
2016-10-25T11:45:16.904Z,10.39
2016-10-25T11:46:16.890Z,10.36
2016-10-25T11:47:16.881Z,10.3
2016-10-25T11:48:16.872Z,10.37
2016-10-25T11:49:17.159Z,10.34
2016-10-25T11:50:16.837Z,10.26
2016-10-25T11:51:17.021Z,10.26
2016-10-25T11:52:16.807Z,10.22
2016-10-25T11:53:17.111Z,10.26
2016-10-25T11:54:17.089Z,10.24
2016-10-25T11:55:16.771Z,10.28
2016-10-25T11:56:16.752Z,10.22
2016-10-25T11:57:16.735Z,10.25
2016-10-25T11:58:16.729Z,10.33
2016-10-25T11:59:17.217Z,10.28
2016-10-25T12:00:16.707Z,10.25
2016-10-25T12:01:16.689Z,10.21
2016-10-25T12:02:16.667Z,10.34
2016-10-25T12:03:16.688Z,10.28
2016-10-25T12:04:16.642Z,10.28
2016-10-25T12:05:16.942Z,10.34
2016-10-25T12:06:16.628Z,10.36
2016-10-25T12:07:16.610Z,10.34
2016-10-25T12:08:16.585Z,10.36
2016-10-25T12:09:16.571Z,10.34
2016-10-25T12:10:16.873Z,10.32
2016-10-25T12:11:16.861Z,10.36
2016-10-25T12:12:16.527Z,10.33
2016-10-25T12:13:16.830Z,10.32
2016-10-25T12:14:16.820Z,10.4
2016-10-25T12:15:16.490Z,10.43
2016-10-25T12:16:16.474Z,10.34
2016-10-25T12:17:16.462Z,10.36
2016-10-25T12:18:16.658Z,10.33
2016-10-25T12:19:16.764Z,10.4
2016-10-25T12:20:17.044Z,10.47
2016-10-25T12:21:16.405Z,10.42
2016-10-25T12:22:16.391Z,10.43
2016-10-25T12:23:16.692Z,10.39
2016-10-25T12:24:16.363Z,10.39
2016-10-25T12:25:16.361Z,10.32
2016-10-25T12:26:16.336Z,10.47
2016-10-25T12:27:16.635Z,10.37
2016-10-25T12:28:16.308Z,10.43
2016-10-25T12:29:16.292Z,10.36
2016-10-25T12:30:16.279Z,10.34
2016-10-25T12:31:16.268Z,10.4
2016-10-25T12:32:16.259Z,10.39
2016-10-25T12:33:16.236Z,10.52
2016-10-25T12:34:16.235Z,10.52
2016-10-25T12:35:16.209Z,10.47
2016-10-25T12:36:16.195Z,10.56
2016-10-25T12:37:16.183Z,10.42
2016-10-25T12:38:16.167Z,10.53
2016-10-25T12:39:16.154Z,10.39
2016-10-25T12:40:16.142Z,10.51
2016-10-25T12:41:16.164Z,10.4
2016-10-25T12:42:16.110Z,10.39
2016-10-25T12:43:16.109Z,10.4
2016-10-25T12:44:16.085Z,10.4
2016-10-25T12:45:16.072Z,10.36
2016-10-25T12:46:16.057Z,10.39
2016-10-25T12:47:16.044Z,10.44
2016-10-25T12:48:16.341Z,10.37
2016-10-25T12:49:16.028Z,10.46
2016-10-25T12:50:16.003Z,10.4
2016-10-25T12:51:16.303Z,10.4
2016-10-25T12:52:15.977Z,10.4
2016-10-25T12:53:15.985Z,10.55
2016-10-25T12:54:15.950Z,10.42
2016-10-25T12:55:15.933Z,10.46
2016-10-25T12:56:15.918Z,10.39
2016-10-25T12:57:15.906Z,10.43
2016-10-25T12:58:16.209Z,10.44
2016-10-25T12:59:16.556Z,10.52
2016-10-25T13:00:15.875Z,10.37
2016-10-25T13:01:15.857Z,10.4
2016-10-25T13:02:15.833Z,10.4
2016-10-25T13:03:15.821Z,10.42
2016-10-25T13:04:16.125Z,10.43
2016-10-25T13:05:16.108Z,10.39
2016-10-25T13:06:15.775Z,10.43
2016-10-25T13:07:16.395Z,10.4
2016-10-25T13:08:15.754Z,10.4
2016-10-25T13:09:15.742Z,10.42
2016-10-25T13:10:15.730Z,10.51
2016-10-25T13:11:15.715Z,10.46
2016-10-25T13:12:15.700Z,10.53
2016-10-25T13:13:15.688Z,10.52
2016-10-25T13:14:15.705Z,10.52